Terminal Aerodrome Forecast
Issued by NWS

Current Version | Previous Version | Text Only | Print | Product List | Glossary On
Versions: 1 2 3 4 5 6 7 8 9 10 11 12 13 14 15 16 17 18 19 20 21 22 23 24 25 26
000
FTUS45 KPSR 242320
TAFIWA
TAF
KIWA 242320Z 2500/2524 26008KT P6SM SCT050 BKN060
     FM250400 12004KT P6SM FEW050
     FM252300 28005KT P6SM FEW060
      AMD LTD TO CLD VIS AND WIND 2503/2513=

USA.gov is the U.S. government's official web portal to all federal, state and local government web resources and services.